sensor_id;sensor_type;location;lat;lon;timestamp;P1;durP1;ratioP1;P2;durP2;ratioP2
5147;SDS011;2592;48.140;7.614;2023-04-03T00:00:15;2.97;;;2.70;;
5147;SDS011;2592;48.140;7.614;2023-04-03T00:02:42;3.27;;;2.93;;
5147;SDS011;2592;48.140;7.614;2023-04-03T00:05:08;3.30;;;2.47;;
5147;SDS011;2592;48.140;7.614;2023-04-03T00:07:35;5.13;;;2.40;;
5147;SDS011;2592;48.140;7.614;2023-04-03T00:10:01;4.50;;;3.37;;
5147;SDS011;2592;48.140;7.614;2023-04-03T00:12:27;2.83;;;2.57;;
5147;SDS011;2592;48.140;7.614;2023-04-03T00:14:55;3.93;;;2.27;;
5147;SDS011;2592;48.140;7.614;2023-04-03T00:17:22;2.80;;;2.50;;
5147;SDS011;2592;48.140;7.614;2023-04-03T00:19:48;5.23;;;2.03;;
5147;SDS011;2592;48.140;7.614;2023-04-03T00:22:14;2.37;;;2.17;;
5147;SDS011;2592;48.140;7.614;2023-04-03T00:24:41;3.20;;;2.30;;
5147;SDS011;2592;48.140;7.614;2023-04-03T00:27:07;3.37;;;2.03;;
5147;SDS011;2592;48.140;7.614;2023-04-03T00:29:33;3.13;;;2.50;;
5147;SDS011;2592;48.140;7.614;2023-04-03T00:32:01;2.67;;;2.33;;
5147;SDS011;2592;48.140;7.614;2023-04-03T00:34:28;2.47;;;1.93;;
5147;SDS011;2592;48.140;7.614;2023-04-03T00:36:54;3.10;;;1.73;;
5147;SDS011;2592;48.140;7.614;2023-04-03T00:39:21;2.47;;;2.27;;
5147;SDS011;2592;48.140;7.614;2023-04-03T00:41:47;3.07;;;2.47;;
5147;SDS011;2592;48.140;7.614;2023-04-03T00:44:21;2.40;;;2.00;;
5147;SDS011;2592;48.140;7.614;2023-04-03T00:46:47;3.37;;;2.20;;
5147;SDS011;2592;48.140;7.614;2023-04-03T00:49:15;2.73;;;1.80;;
5147;SDS011;2592;48.140;7.614;2023-04-03T00:51:41;2.70;;;2.03;;
5147;SDS011;2592;48.140;7.614;2023-04-03T00:54:08;2.93;;;2.33;;
5147;SDS011;2592;48.140;7.614;2023-04-03T00:56:34;3.13;;;2.30;;
5147;SDS011;2592;48.140;7.614;2023-04-03T00:59:04;2.63;;;2.03;;
5147;SDS011;2592;48.140;7.614;2023-04-03T01:01:31;3.33;;;2.70;;
5147;SDS011;2592;48.140;7.614;2023-04-03T01:03:58;8.20;;;2.10;;
5147;SDS011;2592;48.140;7.614;2023-04-03T01:06:27;3.27;;;2.33;;
5147;SDS011;2592;48.140;7.614;2023-04-03T01:08:56;2.37;;;2.17;;
5147;SDS011;2592;48.140;7.614;2023-04-03T01:11:22;7.23;;;1.90;;
5147;SDS011;2592;48.140;7.614;2023-04-03T01:13:48;4.53;;;2.33;;
5147;SDS011;2592;48.140;7.614;2023-04-03T01:16:15;2.80;;;2.03;;
5147;SDS011;2592;48.140;7.614;2023-04-03T01:18:41;4.90;;;2.37;;
5147;SDS011;2592;48.140;7.614;2023-04-03T01:21:16;2.17;;;1.97;;
5147;SDS011;2592;48.140;7.614;2023-04-03T01:23:53;4.17;;;2.73;;
5147;SDS011;2592;48.140;7.614;2023-04-03T01:26:22;5.27;;;2.57;;
5147;SDS011;2592;48.140;7.614;2023-04-03T01:28:48;4.73;;;2.33;;
5147;SDS011;2592;48.140;7.614;2023-04-03T01:31:16;3.90;;;2.40;;
5147;SDS011;2592;48.140;7.614;2023-04-03T01:33:46;3.23;;;2.43;;
5147;SDS011;2592;48.140;7.614;2023-04-03T01:36:13;2.90;;;2.37;;
5147;SDS011;2592;48.140;7.614;2023-04-03T01:38:40;2.83;;;2.10;;
5147;SDS011;2592;48.140;7.614;2023-04-03T01:41:06;2.83;;;1.93;;
5147;SDS011;2592;48.140;7.614;2023-04-03T01:43:33;3.97;;;2.70;;
5147;SDS011;2592;48.140;7.614;2023-04-03T01:45:59;2.90;;;2.07;;
5147;SDS011;2592;48.140;7.614;2023-04-03T01:48:26;4.77;;;2.43;;
5147;SDS011;2592;48.140;7.614;2023-04-03T01:50:53;2.87;;;2.33;;
5147;SDS011;2592;48.140;7.614;2023-04-03T01:53:20;2.60;;;2.23;;
5147;SDS011;2592;48.140;7.614;2023-04-03T01:55:46;2.60;;;2.40;;
5147;SDS011;2592;48.140;7.614;2023-04-03T01:58:13;3.13;;;2.03;;
5147;SDS011;2592;48.140;7.614;2023-04-03T02:00:39;2.53;;;2.23;;
5147;SDS011;2592;48.140;7.614;2023-04-03T02:03:06;3.23;;;1.77;;
5147;SDS011;2592;48.140;7.614;2023-04-03T02:05:32;3.10;;;2.13;;
5147;SDS011;2592;48.140;7.614;2023-04-03T02:08:00;2.40;;;2.20;;
5147;SDS011;2592;48.140;7.614;2023-04-03T02:10:26;3.23;;;2.30;;
5147;SDS011;2592;48.140;7.614;2023-04-03T02:12:53;3.30;;;2.40;;
5147;SDS011;2592;48.140;7.614;2023-04-03T02:15:19;2.97;;;2.33;;
5147;SDS011;2592;48.140;7.614;2023-04-03T02:17:45;6.03;;;2.50;;
5147;SDS011;2592;48.140;7.614;2023-04-03T02:20:12;6.10;;;2.80;;
5147;SDS011;2592;48.140;7.614;2023-04-03T02:22:38;2.50;;;1.90;;
5147;SDS011;2592;48.140;7.614;2023-04-03T02:25:06;5.10;;;2.63;;
5147;SDS011;2592;48.140;7.614;2023-04-03T02:27:33;2.33;;;2.13;;
5147;SDS011;2592;48.140;7.614;2023-04-03T02:30:00;3.17;;;2.33;;
5147;SDS011;2592;48.140;7.614;2023-04-03T02:32:26;2.83;;;2.20;;
5147;SDS011;2592;48.140;7.614;2023-04-03T02:34:53;15.13;;;2.33;;
5147;SDS011;2592;48.140;7.614;2023-04-03T02:37:19;2.67;;;2.10;;
5147;SDS011;2592;48.140;7.614;2023-04-03T02:39:46;3.30;;;2.27;;
5147;SDS011;2592;48.140;7.614;2023-04-03T02:42:13;4.03;;;2.37;;
5147;SDS011;2592;48.140;7.614;2023-04-03T02:44:40;2.37;;;2.17;;
5147;SDS011;2592;48.140;7.614;2023-04-03T02:47:06;3.20;;;2.63;;
5147;SDS011;2592;48.140;7.614;2023-04-03T02:49:33;6.27;;;2.43;;
5147;SDS011;2592;48.140;7.614;2023-04-03T02:51:59;1.93;;;1.83;;
5147;SDS011;2592;48.140;7.614;2023-04-03T02:54:25;2.70;;;2.50;;
5147;SDS011;2592;48.140;7.614;2023-04-03T02:56:53;4.07;;;2.60;;
5147;SDS011;2592;48.140;7.614;2023-04-03T02:59:21;3.37;;;2.27;;
5147;SDS011;2592;48.140;7.614;2023-04-03T03:01:47;6.33;;;2.43;;
5147;SDS011;2592;48.140;7.614;2023-04-03T03:04:14;5.67;;;2.43;;
5147;SDS011;2592;48.140;7.614;2023-04-03T03:06:40;2.43;;;2.23;;
5147;SDS011;2592;48.140;7.614;2023-04-03T03:09:07;2.97;;;2.67;;
5147;SDS011;2592;48.140;7.614;2023-04-03T03:11:33;3.27;;;2.73;;
5147;SDS011;2592;48.140;7.614;2023-04-03T03:14:00;2.63;;;2.27;;
5147;SDS011;2592;48.140;7.614;2023-04-03T03:16:28;3.10;;;1.97;;
5147;SDS011;2592;48.140;7.614;2023-04-03T03:18:54;4.17;;;2.40;;
5147;SDS011;2592;48.140;7.614;2023-04-03T03:21:20;4.03;;;2.50;;
5147;SDS011;2592;48.140;7.614;2023-04-03T03:23:47;4.20;;;2.70;;
5147;SDS011;2592;48.140;7.614;2023-04-03T03:26:13;2.33;;;2.07;;
5147;SDS011;2592;48.140;7.614;2023-04-03T03:28:40;3.00;;;2.30;;
5147;SDS011;2592;48.140;7.614;2023-04-03T03:31:07;4.13;;;2.50;;
5147;SDS011;2592;48.140;7.614;2023-04-03T03:33:34;2.53;;;2.33;;
5147;SDS011;2592;48.140;7.614;2023-04-03T03:36:01;2.30;;;2.13;;
5147;SDS011;2592;48.140;7.614;2023-04-03T03:38:27;2.40;;;1.90;;
5147;SDS011;2592;48.140;7.614;2023-04-03T03:40:53;3.50;;;1.90;;
5147;SDS011;2592;48.140;7.614;2023-04-03T03:43:20;2.57;;;2.37;;
5147;SDS011;2592;48.140;7.614;2023-04-03T03:45:49;4.13;;;2.17;;
5147;SDS011;2592;48.140;7.614;2023-04-03T03:48:16;3.97;;;2.53;;
5147;SDS011;2592;48.140;7.614;2023-04-03T03:50:43;4.63;;;2.00;;
5147;SDS011;2592;48.140;7.614;2023-04-03T03:53:10;5.90;;;2.40;;
5147;SDS011;2592;48.140;7.614;2023-04-03T03:55:36;1.97;;;1.67;;
5147;SDS011;2592;48.140;7.614;2023-04-03T03:58:02;2.43;;;2.00;;
5147;SDS011;2592;48.140;7.614;2023-04-03T04:00:29;4.70;;;2.53;;
5147;SDS011;2592;48.140;7.614;2023-04-03T04:02:56;2.67;;;2.10;;
5147;SDS011;2592;48.140;7.614;2023-04-03T04:05:22;3.30;;;2.10;;
5147;SDS011;2592;48.140;7.614;2023-04-03T04:07:50;2.20;;;2.00;;
5147;SDS011;2592;48.140;7.614;2023-04-03T04:10:16;3.33;;;1.80;;
5147;SDS011;2592;48.140;7.614;2023-04-03T04:12:43;2.83;;;2.23;;
5147;SDS011;2592;48.140;7.614;2023-04-03T04:15:09;2.43;;;2.00;;
5147;SDS011;2592;48.140;7.614;2023-04-03T04:17:36;4.23;;;2.67;;
5147;SDS011;2592;48.140;7.614;2023-04-03T04:20:02;6.00;;;4.03;;
5147;SDS011;2592;48.140;7.614;2023-04-03T04:22:30;5.60;;;4.07;;
5147;SDS011;2592;48.140;7.614;2023-04-03T04:24:58;2.93;;;2.10;;
5147;SDS011;2592;48.140;7.614;2023-04-03T04:27:24;2.80;;;1.97;;
5147;SDS011;2592;48.140;7.614;2023-04-03T04:29:50;2.73;;;2.40;;
5147;SDS011;2592;48.140;7.614;2023-04-03T04:32:17;3.43;;;1.90;;
5147;SDS011;2592;48.140;7.614;2023-04-03T04:34:43;5.33;;;2.53;;
5147;SDS011;2592;48.140;7.614;2023-04-03T04:37:09;3.37;;;2.20;;
5147;SDS011;2592;48.140;7.614;2023-04-03T04:39:36;3.33;;;2.17;;
5147;SDS011;2592;48.140;7.614;2023-04-03T04:42:03;2.77;;;1.97;;
5147;SDS011;2592;48.140;7.614;2023-04-03T04:44:32;4.23;;;2.53;;
5147;SDS011;2592;48.140;7.614;2023-04-03T04:46:58;2.60;;;2.27;;
5147;SDS011;2592;48.140;7.614;2023-04-03T04:49:24;3.40;;;2.73;;
5147;SDS011;2592;48.140;7.614;2023-04-03T04:51:51;3.07;;;2.47;;
5147;SDS011;2592;48.140;7.614;2023-04-03T04:54:17;2.57;;;2.37;;
5147;SDS011;2592;48.140;7.614;2023-04-03T04:56:44;3.30;;;2.10;;
5147;SDS011;2592;48.140;7.614;2023-04-03T04:59:12;2.93;;;2.20;;
5147;SDS011;2592;48.140;7.614;2023-04-03T05:01:38;5.17;;;2.83;;
5147;SDS011;2592;48.140;7.614;2023-04-03T05:04:05;6.50;;;2.80;;
5147;SDS011;2592;48.140;7.614;2023-04-03T05:06:31;2.70;;;2.13;;
5147;SDS011;2592;48.140;7.614;2023-04-03T05:08:58;5.13;;;2.70;;
5147;SDS011;2592;48.140;7.614;2023-04-03T05:11:24;3.00;;;2.33;;
5147;SDS011;2592;48.140;7.614;2023-04-03T05:13:51;3.33;;;2.33;;
5147;SDS011;2592;48.140;7.614;2023-04-03T05:16:18;2.83;;;2.33;;
5147;SDS011;2592;48.140;7.614;2023-04-03T05:18:45;4.80;;;2.17;;
5147;SDS011;2592;48.140;7.614;2023-04-03T05:21:11;2.30;;;2.10;;
5147;SDS011;2592;48.140;7.614;2023-04-03T05:23:37;3.27;;;1.90;;
5147;SDS011;2592;48.140;7.614;2023-04-03T05:26:04;3.50;;;2.70;;
5147;SDS011;2592;48.140;7.614;2023-04-03T05:28:30;3.00;;;2.47;;
5147;SDS011;2592;48.140;7.614;2023-04-03T05:30:57;6.23;;;2.00;;
5147;SDS011;2592;48.140;7.614;2023-04-03T05:33:26;3.20;;;2.23;;
5147;SDS011;2592;48.140;7.614;2023-04-03T05:35:52;4.53;;;2.87;;
5147;SDS011;2592;48.140;7.614;2023-04-03T05:38:19;5.20;;;2.50;;
5147;SDS011;2592;48.140;7.614;2023-04-03T05:40:45;2.87;;;2.67;;
5147;SDS011;2592;48.140;7.614;2023-04-03T05:43:11;3.63;;;2.03;;
5147;SDS011;2592;48.140;7.614;2023-04-03T05:45:38;2.63;;;2.20;;
5147;SDS011;2592;48.140;7.614;2023-04-03T05:48:04;4.83;;;2.80;;
5147;SDS011;2592;48.140;7.614;2023-04-03T05:50:32;3.00;;;2.37;;
5147;SDS011;2592;48.140;7.614;2023-04-03T05:52:58;2.37;;;2.20;;
5147;SDS011;2592;48.140;7.614;2023-04-03T05:55:25;2.57;;;2.37;;
5147;SDS011;2592;48.140;7.614;2023-04-03T05:57:51;3.90;;;2.47;;
5147;SDS011;2592;48.140;7.614;2023-04-03T06:00:18;2.30;;;1.83;;
5147;SDS011;2592;48.140;7.614;2023-04-03T06:02:45;3.50;;;2.17;;
5147;SDS011;2592;48.140;7.614;2023-04-03T06:05:11;3.20;;;2.43;;
5147;SDS011;2592;48.140;7.614;2023-04-03T06:07:39;2.57;;;2.00;;
5147;SDS011;2592;48.140;7.614;2023-04-03T06:10:06;3.87;;;2.37;;
5147;SDS011;2592;48.140;7.614;2023-04-03T06:12:33;6.50;;;2.97;;
5147;SDS011;2592;48.140;7.614;2023-04-03T06:14:59;3.77;;;3.20;;
5147;SDS011;2592;48.140;7.614;2023-04-03T06:17:27;6.33;;;3.30;;
5147;SDS011;2592;48.140;7.614;2023-04-03T06:19:54;2.73;;;2.40;;
5147;SDS011;2592;48.140;7.614;2023-04-03T06:22:23;3.17;;;2.60;;
5147;SDS011;2592;48.140;7.614;2023-04-03T06:24:52;3.90;;;3.43;;
5147;SDS011;2592;48.140;7.614;2023-04-03T06:27:18;6.03;;;4.00;;
5147;SDS011;2592;48.140;7.614;2023-04-03T06:29:44;3.97;;;3.17;;
5147;SDS011;2592;48.140;7.614;2023-04-03T06:32:11;4.30;;;2.50;;
5147;SDS011;2592;48.140;7.614;2023-04-03T06:34:37;2.80;;;2.10;;
5147;SDS011;2592;48.140;7.614;2023-04-03T06:37:03;2.53;;;2.30;;
5147;SDS011;2592;48.140;7.614;2023-04-03T06:39:30;4.30;;;2.90;;
5147;SDS011;2592;48.140;7.614;2023-04-03T06:41:58;3.90;;;2.67;;
5147;SDS011;2592;48.140;7.614;2023-04-03T06:44:25;5.67;;;3.17;;
5147;SDS011;2592;48.140;7.614;2023-04-03T06:46:51;4.30;;;3.00;;
5147;SDS011;2592;48.140;7.614;2023-04-03T06:49:19;3.00;;;2.70;;
5147;SDS011;2592;48.140;7.614;2023-04-03T06:51:45;4.93;;;2.73;;
5147;SDS011;2592;48.140;7.614;2023-04-03T06:54:12;3.57;;;3.27;;
5147;SDS011;2592;48.140;7.614;2023-04-03T06:56:39;8.40;;;4.57;;
5147;SDS011;2592;48.140;7.614;2023-04-03T06:59:07;8.43;;;5.20;;
5147;SDS011;2592;48.140;7.614;2023-04-03T07:01:34;31.13;;;21.97;;
5147;SDS011;2592;48.140;7.614;2023-04-03T07:04:00;22.33;;;20.17;;
5147;SDS011;2592;48.140;7.614;2023-04-03T07:06:27;12.03;;;10.90;;
5147;SDS011;2592;48.140;7.614;2023-04-03T07:08:53;6.53;;;4.73;;
5147;SDS011;2592;48.140;7.614;2023-04-03T07:11:20;5.97;;;5.47;;
5147;SDS011;2592;48.140;7.614;2023-04-03T07:13:47;10.13;;;6.43;;
5147;SDS011;2592;48.140;7.614;2023-04-03T07:16:15;3.80;;;3.23;;
5147;SDS011;2592;48.140;7.614;2023-04-03T07:18:41;7.97;;;4.47;;
5147;SDS011;2592;48.140;7.614;2023-04-03T07:21:07;8.43;;;4.60;;
5147;SDS011;2592;48.140;7.614;2023-04-03T07:23:34;10.07;;;9.17;;
5147;SDS011;2592;48.140;7.614;2023-04-03T07:26:00;8.20;;;6.40;;
5147;SDS011;2592;48.140;7.614;2023-04-03T07:28:27;10.57;;;9.60;;
5147;SDS011;2592;48.140;7.614;2023-04-03T07:30:53;8.43;;;5.20;;
5147;SDS011;2592;48.140;7.614;2023-04-03T07:33:22;7.13;;;5.40;;
5147;SDS011;2592;48.140;7.614;2023-04-03T07:35:49;5.23;;;4.03;;
5147;SDS011;2592;48.140;7.614;2023-04-03T07:38:15;4.03;;;3.47;;
5147;SDS011;2592;48.140;7.614;2023-04-03T07:40:45;4.13;;;2.90;;
5147;SDS011;2592;48.140;7.614;2023-04-03T07:43:11;4.00;;;3.20;;
5147;SDS011;2592;48.140;7.614;2023-04-03T07:45:38;3.60;;;3.17;;
5147;SDS011;2592;48.140;7.614;2023-04-03T07:48:04;3.07;;;2.87;;
5147;SDS011;2592;48.140;7.614;2023-04-03T07:50:32;5.50;;;3.60;;
5147;SDS011;2592;48.140;7.614;2023-04-03T07:52:59;4.07;;;2.90;;
5147;SDS011;2592;48.140;7.614;2023-04-03T07:55:26;3.70;;;2.63;;
5147;SDS011;2592;48.140;7.614;2023-04-03T07:57:52;2.87;;;2.67;;
5147;SDS011;2592;48.140;7.614;2023-04-03T08:00:18;3.07;;;2.83;;
5147;SDS011;2592;48.140;7.614;2023-04-03T08:02:45;3.93;;;3.10;;
5147;SDS011;2592;48.140;7.614;2023-04-03T08:05:15;5.50;;;3.03;;
5147;SDS011;2592;48.140;7.614;2023-04-03T08:07:43;3.07;;;2.77;;
5147;SDS011;2592;48.140;7.614;2023-04-03T08:10:09;4.87;;;3.17;;
5147;SDS011;2592;48.140;7.614;2023-04-03T08:12:36;3.77;;;2.90;;
5147;SDS011;2592;48.140;7.614;2023-04-03T08:15:03;3.03;;;2.80;;
5147;SDS011;2592;48.140;7.614;2023-04-03T08:17:30;3.60;;;2.70;;
5147;SDS011;2592;48.140;7.614;2023-04-03T08:19:56;3.60;;;3.23;;
5147;SDS011;2592;48.140;7.614;2023-04-03T08:22:22;4.63;;;2.87;;
5147;SDS011;2592;48.140;7.614;2023-04-03T08:24:51;3.20;;;2.90;;
5147;SDS011;2592;48.140;7.614;2023-04-03T08:27:17;2.90;;;2.60;;
5147;SDS011;2592;48.140;7.614;2023-04-03T08:29:43;3.10;;;2.43;;
5147;SDS011;2592;48.140;7.614;2023-04-03T08:32:10;3.93;;;3.03;;
5147;SDS011;2592;48.140;7.614;2023-04-03T08:34:37;4.30;;;3.10;;
5147;SDS011;2592;48.140;7.614;2023-04-03T08:37:04;6.47;;;3.60;;
5147;SDS011;2592;48.140;7.614;2023-04-03T08:39:31;5.17;;;3.67;;
5147;SDS011;2592;48.140;7.614;2023-04-03T08:41:59;4.13;;;3.17;;
5147;SDS011;2592;48.140;7.614;2023-04-03T08:44:31;4.30;;;3.00;;
5147;SDS011;2592;48.140;7.614;2023-04-03T08:47:04;3.83;;;3.03;;
5147;SDS011;2592;48.140;7.614;2023-04-03T08:49:31;2.97;;;2.73;;
5147;SDS011;2592;48.140;7.614;2023-04-03T08:51:59;2.73;;;2.53;;
5147;SDS011;2592;48.140;7.614;2023-04-03T08:54:28;3.27;;;2.97;;
5147;SDS011;2592;48.140;7.614;2023-04-03T08:56:55;2.53;;;2.30;;
5147;SDS011;2592;48.140;7.614;2023-04-03T08:59:26;2.93;;;2.63;;
5147;SDS011;2592;48.140;7.614;2023-04-03T09:01:54;3.20;;;2.90;;
5147;SDS011;2592;48.140;7.614;2023-04-03T09:04:22;2.63;;;2.40;;
5147;SDS011;2592;48.140;7.614;2023-04-03T09:06:49;2.60;;;2.40;;
5147;SDS011;2592;48.140;7.614;2023-04-03T09:09:21;3.87;;;2.93;;
5147;SDS011;2592;48.140;7.614;2023-04-03T09:11:53;2.90;;;2.70;;
5147;SDS011;2592;48.140;7.614;2023-04-03T09:14:24;4.37;;;3.40;;
5147;SDS011;2592;48.140;7.614;2023-04-03T09:16:54;10.47;;;4.70;;
5147;SDS011;2592;48.140;7.614;2023-04-03T09:19:24;7.90;;;4.97;;
5147;SDS011;2592;48.140;7.614;2023-04-03T09:21:53;13.40;;;7.17;;
5147;SDS011;2592;48.140;7.614;2023-04-03T09:24:22;7.47;;;4.17;;
5147;SDS011;2592;48.140;7.614;2023-04-03T09:26:51;4.43;;;3.10;;
5147;SDS011;2592;48.140;7.614;2023-04-03T09:29:19;4.10;;;3.30;;
5147;SDS011;2592;48.140;7.614;2023-04-03T09:31:46;3.57;;;2.70;;
5147;SDS011;2592;48.140;7.614;2023-04-03T09:34:19;10.93;;;2.73;;
5147;SDS011;2592;48.140;7.614;2023-04-03T09:36:47;3.27;;;2.67;;
5147;SDS011;2592;48.140;7.614;2023-04-03T09:39:15;3.97;;;3.17;;
5147;SDS011;2592;48.140;7.614;2023-04-03T09:41:42;2.93;;;2.63;;
5147;SDS011;2592;48.140;7.614;2023-04-03T09:44:22;3.80;;;2.97;;
5147;SDS011;2592;48.140;7.614;2023-04-03T09:46:49;4.13;;;2.90;;
5147;SDS011;2592;48.140;7.614;2023-04-03T09:49:17;3.20;;;2.77;;
5147;SDS011;2592;48.140;7.614;2023-04-03T09:51:43;2.40;;;2.20;;
5147;SDS011;2592;48.140;7.614;2023-04-03T09:56:55;3.20;;;2.70;;
5147;SDS011;2592;48.140;7.614;2023-04-03T09:59:23;4.60;;;3.60;;
5147;SDS011;2592;48.140;7.614;2023-04-03T10:01:56;4.00;;;3.40;;
5147;SDS011;2592;48.140;7.614;2023-04-03T10:04:24;3.97;;;3.07;;
5147;SDS011;2592;48.140;7.614;2023-04-03T10:06:51;5.37;;;3.70;;
5147;SDS011;2592;48.140;7.614;2023-04-03T10:09:19;5.37;;;3.87;;
5147;SDS011;2592;48.140;7.614;2023-04-03T10:12:00;7.73;;;3.70;;
5147;SDS011;2592;48.140;7.614;2023-04-03T10:14:26;5.97;;;2.70;;
5147;SDS011;2592;48.140;7.614;2023-04-03T10:16:54;3.07;;;2.77;;
5147;SDS011;2592;48.140;7.614;2023-04-03T10:22:12;4.87;;;2.60;;
5147;SDS011;2592;48.140;7.614;2023-04-03T10:24:44;4.30;;;2.27;;
5147;SDS011;2592;48.140;7.614;2023-04-03T10:27:12;2.47;;;2.27;;
5147;SDS011;2592;48.140;7.614;2023-04-03T10:29:40;3.13;;;2.27;;
5147;SDS011;2592;48.140;7.614;2023-04-03T10:32:12;3.20;;;2.90;;
5147;SDS011;2592;48.140;7.614;2023-04-03T10:34:42;3.30;;;2.63;;
5147;SDS011;2592;48.140;7.614;2023-04-03T10:37:13;5.40;;;3.00;;
5147;SDS011;2592;48.140;7.614;2023-04-03T10:39:44;3.63;;;2.30;;
5147;SDS011;2592;48.140;7.614;2023-04-03T10:42:15;3.33;;;2.07;;
5147;SDS011;2592;48.140;7.614;2023-04-03T10:47:27;2.23;;;2.00;;
5147;SDS011;2592;48.140;7.614;2023-04-03T10:49:56;2.50;;;2.23;;
5147;SDS011;2592;48.140;7.614;2023-04-03T10:52:30;3.50;;;2.63;;
5147;SDS011;2592;48.140;7.614;2023-04-03T10:55:00;5.27;;;3.00;;
5147;SDS011;2592;48.140;7.614;2023-04-03T10:57:29;4.40;;;2.43;;
5147;SDS011;2592;48.140;7.614;2023-04-03T10:59:56;3.70;;;2.13;;
5147;SDS011;2592;48.140;7.614;2023-04-03T11:02:24;3.27;;;2.60;;
5147;SDS011;2592;48.140;7.614;2023-04-03T11:04:53;2.23;;;2.03;;
5147;SDS011;2592;48.140;7.614;2023-04-03T11:07:23;2.67;;;2.33;;
5147;SDS011;2592;48.140;7.614;2023-04-03T11:09:52;5.67;;;3.30;;
5147;SDS011;2592;48.140;7.614;2023-04-03T11:12:21;4.67;;;2.80;;
5147;SDS011;2592;48.140;7.614;2023-04-03T11:14:49;3.33;;;2.60;;
5147;SDS011;2592;48.140;7.614;2023-04-03T11:17:22;3.67;;;2.60;;
5147;SDS011;2592;48.140;7.614;2023-04-03T11:19:52;4.30;;;3.20;;
5147;SDS011;2592;48.140;7.614;2023-04-03T11:22:23;4.67;;;3.37;;
5147;SDS011;2592;48.140;7.614;2023-04-03T11:24:55;3.50;;;1.80;;
5147;SDS011;2592;48.140;7.614;2023-04-03T11:27:23;2.83;;;2.50;;
5147;SDS011;2592;48.140;7.614;2023-04-03T11:29:52;3.00;;;2.30;;
5147;SDS011;2592;48.140;7.614;2023-04-03T11:32:29;1.60;;;1.50;;
5147;SDS011;2592;48.140;7.614;2023-04-03T11:34:58;2.33;;;2.07;;
5147;SDS011;2592;48.140;7.614;2023-04-03T11:37:31;2.77;;;1.90;;
5147;SDS011;2592;48.140;7.614;2023-04-03T11:40:00;2.70;;;2.17;;
5147;SDS011;2592;48.140;7.614;2023-04-03T11:42:30;2.60;;;2.27;;
5147;SDS011;2592;48.140;7.614;2023-04-03T11:45:17;3.13;;;2.50;;
5147;SDS011;2592;48.140;7.614;2023-04-03T11:47:49;3.83;;;2.73;;
5147;SDS011;2592;48.140;7.614;2023-04-03T11:52:58;4.70;;;3.20;;
5147;SDS011;2592;48.140;7.614;2023-04-03T11:58:13;3.50;;;2.20;;
5147;SDS011;2592;48.140;7.614;2023-04-03T12:00:53;2.93;;;2.17;;
5147;SDS011;2592;48.140;7.614;2023-04-03T12:09:04;3.00;;;2.50;;
5147;SDS011;2592;48.140;7.614;2023-04-03T12:11:47;2.97;;;1.97;;
5147;SDS011;2592;48.140;7.614;2023-04-03T12:14:16;1.50;;;1.40;;
5147;SDS011;2592;48.140;7.614;2023-04-03T12:16:44;2.03;;;1.63;;
5147;SDS011;2592;48.140;7.614;2023-04-03T12:19:30;4.87;;;2.17;;
5147;SDS011;2592;48.140;7.614;2023-04-03T12:22:07;3.20;;;1.90;;
5147;SDS011;2592;48.140;7.614;2023-04-03T12:24:34;4.73;;;1.57;;
5147;SDS011;2592;48.140;7.614;2023-04-03T12:27:02;12.53;;;2.30;;
5147;SDS011;2592;48.140;7.614;2023-04-03T12:29:33;1.83;;;1.70;;
5147;SDS011;2592;48.140;7.614;2023-04-03T12:32:05;2.87;;;2.57;;
5147;SDS011;2592;48.140;7.614;2023-04-03T12:34:50;7.43;;;2.57;;
5147;SDS011;2592;48.140;7.614;2023-04-03T12:37:21;4.23;;;2.70;;
5147;SDS011;2592;48.140;7.614;2023-04-03T12:39:54;3.07;;;2.00;;
5147;SDS011;2592;48.140;7.614;2023-04-03T12:42:30;2.90;;;1.97;;
5147;SDS011;2592;48.140;7.614;2023-04-03T12:45:00;7.90;;;2.60;;
5147;SDS011;2592;48.140;7.614;2023-04-03T12:47:28;5.57;;;3.40;;
5147;SDS011;2592;48.140;7.614;2023-04-03T12:49:57;4.37;;;2.87;;
5147;SDS011;2592;48.140;7.614;2023-04-03T12:52:30;4.73;;;2.70;;
5147;SDS011;2592;48.140;7.614;2023-04-03T12:54:57;6.20;;;3.20;;
5147;SDS011;2592;48.140;7.614;2023-04-03T12:57:25;8.17;;;3.87;;
5147;SDS011;2592;48.140;7.614;2023-04-03T12:59:52;5.17;;;2.90;;
5147;SDS011;2592;48.140;7.614;2023-04-03T13:02:24;2.90;;;2.17;;
5147;SDS011;2592;48.140;7.614;2023-04-03T13:04:51;3.80;;;2.97;;
5147;SDS011;2592;48.140;7.614;2023-04-03T13:07:22;2.50;;;2.30;;
5147;SDS011;2592;48.140;7.614;2023-04-03T13:10:00;6.10;;;2.47;;
5147;SDS011;2592;48.140;7.614;2023-04-03T13:12:27;3.03;;;2.47;;
5147;SDS011;2592;48.140;7.614;2023-04-03T13:14:54;3.70;;;3.13;;
5147;SDS011;2592;48.140;7.614;2023-04-03T13:17:21;11.77;;;6.60;;
5147;SDS011;2592;48.140;7.614;2023-04-03T13:19:48;6.53;;;4.00;;
5147;SDS011;2592;48.140;7.614;2023-04-03T13:22:19;4.10;;;3.30;;
5147;SDS011;2592;48.140;7.614;2023-04-03T13:24:52;3.10;;;1.87;;
5147;SDS011;2592;48.140;7.614;2023-04-03T13:27:20;4.70;;;2.10;;
5147;SDS011;2592;48.140;7.614;2023-04-03T13:29:48;2.10;;;1.83;;
5147;SDS011;2592;48.140;7.614;2023-04-03T13:32:17;3.37;;;1.70;;
5147;SDS011;2592;48.140;7.614;2023-04-03T13:34:44;2.63;;;1.77;;
5147;SDS011;2592;48.140;7.614;2023-04-03T13:37:20;2.60;;;2.40;;
5147;SDS011;2592;48.140;7.614;2023-04-03T13:39:56;2.60;;;1.40;;
5147;SDS011;2592;48.140;7.614;2023-04-03T13:42:24;2.80;;;2.00;;
5147;SDS011;2592;48.140;7.614;2023-04-03T13:45:06;3.07;;;1.90;;
5147;SDS011;2592;48.140;7.614;2023-04-03T13:47:37;2.80;;;2.20;;
5147;SDS011;2592;48.140;7.614;2023-04-03T13:50:13;5.37;;;2.70;;
5147;SDS011;2592;48.140;7.614;2023-04-03T13:52:41;3.77;;;2.40;;
5147;SDS011;2592;48.140;7.614;2023-04-03T13:55:15;5.30;;;3.53;;
5147;SDS011;2592;48.140;7.614;2023-04-03T13:57:48;3.77;;;1.80;;
5147;SDS011;2592;48.140;7.614;2023-04-03T14:00:22;5.27;;;2.73;;
5147;SDS011;2592;48.140;7.614;2023-04-03T14:02:53;2.93;;;2.40;;
5147;SDS011;2592;48.140;7.614;2023-04-03T14:05:21;6.17;;;2.70;;
5147;SDS011;2592;48.140;7.614;2023-04-03T14:07:50;6.50;;;2.50;;
5147;SDS011;2592;48.140;7.614;2023-04-03T14:10:17;1.63;;;1.53;;
5147;SDS011;2592;48.140;7.614;2023-04-03T14:12:44;2.60;;;1.60;;
5147;SDS011;2592;48.140;7.614;2023-04-03T14:15:14;6.23;;;2.30;;
5147;SDS011;2592;48.140;7.614;2023-04-03T14:17:41;3.00;;;2.00;;
5147;SDS011;2592;48.140;7.614;2023-04-03T14:20:10;4.57;;;1.60;;
5147;SDS011;2592;48.140;7.614;2023-04-03T14:22:37;3.20;;;2.43;;
5147;SDS011;2592;48.140;7.614;2023-04-03T14:25:05;7.00;;;1.90;;
5147;SDS011;2592;48.140;7.614;2023-04-03T14:27:33;4.97;;;2.50;;
5147;SDS011;2592;48.140;7.614;2023-04-03T14:30:00;3.03;;;2.20;;
5147;SDS011;2592;48.140;7.614;2023-04-03T14:32:28;3.10;;;2.03;;
5147;SDS011;2592;48.140;7.614;2023-04-03T14:34:55;2.70;;;1.97;;
5147;SDS011;2592;48.140;7.614;2023-04-03T14:37:23;4.70;;;2.17;;
5147;SDS011;2592;48.140;7.614;2023-04-03T14:39:53;4.50;;;2.20;;
5147;SDS011;2592;48.140;7.614;2023-04-03T14:42:21;2.30;;;2.07;;
5147;SDS011;2592;48.140;7.614;2023-04-03T14:44:48;2.00;;;1.73;;
5147;SDS011;2592;48.140;7.614;2023-04-03T14:47:16;5.03;;;1.90;;
5147;SDS011;2592;48.140;7.614;2023-04-03T14:49:42;3.40;;;1.80;;
5147;SDS011;2592;48.140;7.614;2023-04-03T14:52:10;4.70;;;2.03;;
5147;SDS011;2592;48.140;7.614;2023-04-03T14:54:42;9.33;;;2.70;;
5147;SDS011;2592;48.140;7.614;2023-04-03T14:57:08;13.87;;;3.00;;
5147;SDS011;2592;48.140;7.614;2023-04-03T14:59:37;4.37;;;2.80;;
5147;SDS011;2592;48.140;7.614;2023-04-03T15:02:05;6.03;;;3.83;;
5147;SDS011;2592;48.140;7.614;2023-04-03T15:04:36;7.60;;;3.90;;
5147;SDS011;2592;48.140;7.614;2023-04-03T15:07:02;4.30;;;2.10;;
5147;SDS011;2592;48.140;7.614;2023-04-03T15:09:29;4.50;;;1.87;;
5147;SDS011;2592;48.140;7.614;2023-04-03T15:11:55;5.00;;;2.23;;
5147;SDS011;2592;48.140;7.614;2023-04-03T15:14:22;4.20;;;2.43;;
5147;SDS011;2592;48.140;7.614;2023-04-03T15:16:49;4.63;;;2.93;;
5147;SDS011;2592;48.140;7.614;2023-04-03T15:19:16;7.80;;;4.23;;
5147;SDS011;2592;48.140;7.614;2023-04-03T15:21:42;5.63;;;3.20;;
5147;SDS011;2592;48.140;7.614;2023-04-03T15:24:09;3.73;;;2.73;;
5147;SDS011;2592;48.140;7.614;2023-04-03T15:26:35;5.20;;;3.00;;
5147;SDS011;2592;48.140;7.614;2023-04-03T15:29:02;5.57;;;3.27;;
5147;SDS011;2592;48.140;7.614;2023-04-03T15:31:29;4.33;;;2.40;;
5147;SDS011;2592;48.140;7.614;2023-04-03T15:33:57;3.90;;;2.13;;
5147;SDS011;2592;48.140;7.614;2023-04-03T15:36:24;3.67;;;2.50;;
5147;SDS011;2592;48.140;7.614;2023-04-03T15:38:50;7.90;;;3.60;;